Alameda, New Mexico
Current Conditions -  °F | °C
As of 10:55 PM on Saturday 25 Oct 2014 (Local Time) from KAEG Reporting Station
Clear Clear  
Wind Chill: 54°   Ceiling: Unl
Heat Index: 54°   Visibility: 10mi
Dew Point: 35°   Wind: 9mph
Humidity: 49%   Direction: 260°W
Pressure: 30.22"   Gusts: NA
Location:  35.1991°N, 106.662°W
Report Text: KAEG 260455Z AUTO 26008KT 10SM CLR 12/02 A3022 RMK AO2 T01230018
Loading
Personal Weather Stations






























Interactive Weather Map
Tropical Storm Tracking
New forecast layout! Learn more

10-Day Weather Forecast

Advertisements
Track Severe Weather on mobile